Time;durP1;ratioP1;P1;durP2;ratioP2;P2;SDS_P1;SDS_P2;PMS_P1;PMS_P2;Temp;Humidity;BMP_temperature;BMP_pressure;BME280_temperature;BME280_humidity;BME280_pressure;Samples;Min_cycle;Max_cycle;Signal;HPM_P1;HPM_P2
2021/01/31 00:01:25;;;;;;;10.35;6.40;;;2.90;99.90;;;;;;5093772;28;20024;-61
2021/01/31 00:03:51;;;;;;;9.38;6.40;;;3.00;99.90;;;;;;5096180;28;20420;-61
2021/01/31 00:06:18;;;;;;;9.85;6.28;;;2.90;99.90;;;;;;5095905;28;20060;-65
2021/01/31 00:08:44;;;;;;;7.68;5.97;;;3.00;99.90;;;;;;5096287;28;20024;-61
2021/01/31 00:11:10;;;;;;;9.13;7.00;;;2.90;99.90;;;;;;5095669;28;20024;-61
2021/01/31 00:13:35;;;;;;;9.77;7.13;;;2.90;99.90;;;;;;5093927;28;20377;-60
2021/01/31 00:16:01;;;;;;;14.13;7.10;;;2.90;99.90;;;;;;5095432;28;20020;-60
2021/01/31 00:18:29;;;;;;;10.57;6.88;;;2.90;99.90;;;;;;5093413;28;20032;-60
2021/01/31 00:20:57;;;;;;;9.45;6.28;;;2.90;99.90;;;;;;5094677;28;20024;-59
2021/01/31 00:23:22;;;;;;;10.63;6.57;;;2.90;99.90;;;;;;5094070;28;20027;-61
2021/01/31 00:25:48;;;;;;;11.40;7.68;;;3.00;99.90;;;;;;5095441;28;20068;-66
2021/01/31 00:28:16;;;;;;;10.55;6.65;;;2.90;99.90;;;;;;5096288;28;20034;-61
2021/01/31 00:30:44;;;;;;;9.98;6.93;;;2.90;99.90;;;;;;5093877;28;20055;-65
2021/01/31 00:33:14;;;;;;;9.18;7.25;;;2.90;99.90;;;;;;5094373;28;20465;-61
2021/01/31 00:35:39;;;;;;;11.45;7.43;;;2.90;99.90;;;;;;5093144;28;20590;-62
2021/01/31 00:38:06;;;;;;;10.70;6.68;;;3.00;99.90;;;;;;5095595;28;20046;-60
2021/01/31 00:40:32;;;;;;;11.65;7.28;;;3.00;99.90;;;;;;5094566;28;20026;-60
2021/01/31 00:42:58;;;;;;;15.10;8.43;;;3.00;99.90;;;;;;5093952;28;20083;-60
2021/01/31 00:45:25;;;;;;;10.60;6.97;;;3.10;99.90;;;;;;5094154;28;20032;-59
2021/01/31 00:47:51;;;;;;;11.43;7.32;;;2.90;99.90;;;;;;5095319;28;20031;-60
2021/01/31 00:50:22;;;;;;;11.07;7.43;;;3.00;99.90;;;;;;5093377;28;20028;-61
2021/01/31 00:52:47;;;;;;;13.15;8.50;;;3.00;99.90;;;;;;5094099;28;20393;-61
2021/01/31 00:55:14;;;;;;;12.32;7.97;;;2.90;99.90;;;;;;5094476;28;20028;-60
2021/01/31 00:57:39;;;;;;;11.93;7.63;;;2.80;99.90;;;;;;5094392;28;20480;-61
2021/01/31 01:00:11;;;;;;;12.38;8.10;;;2.80;99.90;;;;;;5094400;28;20043;-61
2021/01/31 01:02:37;;;;;;;13.75;9.05;;;2.80;99.90;;;;;;5094170;28;20496;-61
2021/01/31 01:05:03;;;;;;;11.35;8.13;;;2.80;99.90;;;;;;5092598;28;20109;-62
2021/01/31 01:07:28;;;;;;;11.30;8.18;;;3.00;99.90;;;;;;5092700;28;20042;-61
2021/01/31 01:09:54;;;;;;;13.68;7.97;;;3.00;99.90;;;;;;5094792;28;20032;-62
2021/01/31 01:12:20;;;;;;;13.05;8.75;;;2.80;99.90;;;;;;5092970;28;20572;-65
2021/01/31 01:14:45;;;;;;;12.55;8.75;;;2.90;99.90;;;;;;5092349;28;20025;-60
2021/01/31 01:17:11;;;;;;;14.80;8.98;;;2.70;99.90;;;;;;5094437;28;20032;-61
2021/01/31 01:19:36;;;;;;;17.85;9.98;;;2.80;99.90;;;;;;5093060;28;20398;-59
2021/01/31 01:22:02;;;;;;;18.08;9.88;;;2.80;99.90;;;;;;5094272;28;20077;-59
2021/01/31 01:24:28;;;;;;;14.90;9.00;;;2.80;99.90;;;;;;5093618;28;20028;-60
2021/01/31 01:26:54;;;;;;;16.38;9.75;;;2.80;99.90;;;;;;5094025;28;20450;-60
2021/01/31 01:29:20;;;;;;;15.52;9.57;;;2.90;99.90;;;;;;5094214;28;20390;-60
2021/01/31 01:31:45;;;;;;;18.25;9.95;;;2.80;99.90;;;;;;5093242;28;20537;-61
2021/01/31 01:34:11;;;;;;;15.13;9.57;;;2.80;99.90;;;;;;5093917;28;20024;-59
2021/01/31 01:36:37;;;;;;;16.15;9.82;;;2.80;99.90;;;;;;5091690;28;20023;-60
2021/01/31 01:39:03;;;;;;;18.60;10.27;;;2.80;99.90;;;;;;5094053;28;20051;-60
2021/01/31 01:41:45;;;;;;;14.65;9.20;;;2.90;99.90;;;;;;5092935;28;20160;-60
2021/01/31 01:44:11;;;;;;;15.32;9.85;;;2.90;99.90;;;;;;5091599;28;20488;-59
2021/01/31 01:46:50;;;;;;;17.33;10.13;;;2.80;99.90;;;;;;5092047;28;20028;-61
2021/01/31 01:49:26;;;;;;;17.05;10.25;;;2.80;99.90;;;;;;5092544;28;20081;-60
2021/01/31 01:51:57;;;;;;;18.35;10.20;;;2.80;99.90;;;;;;5092395;28;20032;-60
2021/01/31 01:54:44;;;;;;;18.85;10.55;;;2.80;99.90;;;;;;5092393;28;20024;-63
2021/01/31 01:57:15;;;;;;;16.92;10.85;;;2.80;99.90;;;;;;5093700;28;20115;-59
2021/01/31 01:59:42;;;;;;;18.08;9.23;;;2.90;99.90;;;;;;5091374;28;20020;-60
2021/01/31 02:02:30;;;;;;;16.17;10.05;;;3.00;99.90;;;;;;5094040;28;20454;-60
2021/01/31 02:05:02;;;;;;;15.20;9.48;;;2.90;99.90;;;;;;5092425;28;20024;-60
2021/01/31 02:07:28;;;;;;;16.25;10.30;;;2.90;99.90;;;;;;5092726;28;20080;-64
2021/01/31 02:09:54;;;;;;;18.73;10.43;;;2.70;99.90;;;;;;5092416;28;20028;-60
2021/01/31 02:12:22;;;;;;;19.63;11.18;;;2.70;99.90;;;;;;5092283;28;20119;-61
2021/01/31 02:14:51;;;;;;;18.08;10.30;;;2.80;99.90;;;;;;5092521;28;20031;-60
2021/01/31 02:17:44;;;;;;;14.90;9.35;;;2.80;99.90;;;;;;5093588;28;20038;-60
2021/01/31 02:20:21;;;;;;;18.50;10.05;;;2.70;99.90;;;;;;5092130;28;20055;-61
2021/01/31 02:23:06;;;;;;;21.00;11.35;;;2.80;99.90;;;;;;5092791;28;20026;-66
2021/01/31 02:25:53;;;;;;;17.75;10.50;;;2.80;99.90;;;;;;5091653;28;20024;-61
2021/01/31 02:28:38;;;;;;;18.42;10.52;;;2.80;99.90;;;;;;5092060;28;20046;-62
2021/01/31 02:31:17;;;;;;;17.45;11.45;;;2.70;99.90;;;;;;5092941;28;20457;-60
2021/01/31 02:34:11;;;;;;;19.25;10.75;;;2.70;99.90;;;;;;5092444;28;20027;-60
2021/01/31 02:37:03;;;;;;;16.40;10.05;;;2.60;99.90;;;;;;5091158;28;20405;-59
2021/01/31 02:39:48;;;;;;;;;;;2.50;99.90;;;;;;5091826;28;20500;-70
2021/01/31 02:42:19;;;;;;;19.10;11.10;;;2.60;99.90;;;;;;5074980;28;19913;-61
2021/01/31 02:45:12;;;;;;;18.50;12.13;;;2.50;99.90;;;;;;5071985;28;20032;-63
2021/01/31 02:47:45;;;;;;;19.30;9.82;;;2.60;99.90;;;;;;5062842;28;20039;-61
2021/01/31 02:50:21;;;;;;;16.55;10.98;;;2.60;99.90;;;;;;5071873;28;20032;-60
2021/01/31 02:53:27;;;;;;;18.70;11.40;;;2.60;99.90;;;;;;5071819;28;20059;-60
2021/01/31 02:56:01;;;;;;;20.42;10.93;;;2.70;99.90;;;;;;5069218;28;20052;-60
2021/01/31 02:58:32;;;;;;;19.38;11.60;;;2.70;99.90;;;;;;5072601;28;20055;-64
2021/01/31 03:01:06;;;;;;;19.60;11.73;;;2.70;99.90;;;;;;5072539;28;20159;-61
2021/01/31 03:03:38;;;;;;;18.20;10.38;;;2.60;99.90;;;;;;5070954;28;20028;-60
2021/01/31 03:06:09;;;;;;;14.43;9.18;;;2.60;99.90;;;;;;5086114;28;20059;-63
2021/01/31 03:08:47;;;;;;;16.73;10.43;;;2.60;99.90;;;;;;5092940;28;20051;-61
2021/01/31 03:11:24;;;;;;;18.70;10.43;;;2.60;99.90;;;;;;5093554;28;20039;-60
2021/01/31 03:13:59;;;;;;;18.85;10.95;;;2.60;99.90;;;;;;5093056;28;20283;-60
2021/01/31 03:16:32;;;;;;;19.30;11.20;;;2.40;99.90;;;;;;5093119;28;20035;-59
2021/01/31 03:19:04;;;;;;;19.00;10.88;;;2.30;99.90;;;;;;5092515;28;20104;-61
2021/01/31 03:21:32;;;;;;;13.85;8.77;;;2.40;99.90;;;;;;5091924;28;20024;-66
2021/01/31 03:24:56;;;;;;;19.88;10.77;;;2.40;99.90;;;;;;5093953;28;20385;-60
2021/01/31 03:27:39;;;;;;;16.88;10.10;;;2.40;99.90;;;;;;5068761;28;20043;-66
2021/01/31 03:30:09;;;;;;;16.83;10.15;;;2.40;99.90;;;;;;5093525;28;20032;-61
2021/01/31 03:32:39;;;;;;;16.95;10.60;;;2.40;99.90;;;;;;5089933;28;20051;-61
2021/01/31 03:35:10;;;;;;;16.85;10.52;;;2.50;99.90;;;;;;5092908;28;20470;-63
2021/01/31 03:37:45;;;;;;;16.45;9.77;;;2.50;99.90;;;;;;5091448;28;20469;-64
2021/01/31 03:40:13;;;;;;;17.08;10.48;;;2.50;99.90;;;;;;5094023;28;20485;-65
2021/01/31 03:42:42;;;;;;;17.55;9.68;;;2.50;99.90;;;;;;5073955;28;20086;-64
2021/01/31 03:45:08;;;;;;;18.02;10.25;;;2.50;99.90;;;;;;5093335;28;20028;-62
2021/01/31 03:47:41;;;;;;;17.73;9.35;;;2.50;99.90;;;;;;5092310;28;20032;-61
2021/01/31 03:50:07;;;;;;;16.67;9.48;;;2.50;99.90;;;;;;5091244;28;20030;-61
2021/01/31 03:52:33;;;;;;;16.90;10.52;;;2.60;99.90;;;;;;5090447;28;20493;-64
2021/01/31 03:54:59;;;;;;;16.23;9.77;;;2.50;99.90;;;;;;5093367;28;20028;-59
2021/01/31 03:57:40;;;;;;;14.65;9.10;;;2.40;99.90;;;;;;5092780;28;20035;-60
2021/01/31 04:00:09;;;;;;;15.10;8.63;;;2.40;99.90;;;;;;5093762;28;20107;-60
2021/01/31 04:02:41;;;;;;;16.10;10.05;;;2.20;99.90;;;;;;5093911;28;20024;-67
2021/01/31 04:05:08;;;;;;;17.20;9.55;;;2.20;99.90;;;;;;5095072;28;20020;-61
2021/01/31 04:07:37;;;;;;;13.38;7.95;;;2.10;99.90;;;;;;5093803;28;20032;-67
2021/01/31 04:10:05;;;;;;;15.30;8.98;;;2.20;99.90;;;;;;5092814;28;20024;-59
2021/01/31 04:12:34;;;;;;;15.35;8.90;;;2.10;99.90;;;;;;5090617;28;20466;-65
2021/01/31 04:15:34;;;;;;;16.15;9.18;;;2.20;99.90;;;;;;5091986;28;20111;-59
2021/01/31 04:17:59;;;;;;;15.45;9.32;;;2.20;99.90;;;;;;5090756;28;20031;-64
2021/01/31 04:20:25;;;;;;;15.52;8.68;;;2.00;99.90;;;;;;5071702;28;20045;-59
2021/01/31 04:22:51;;;;;;;18.63;9.73;;;2.10;99.90;;;;;;5069936;28;20088;-60
2021/01/31 04:25:17;;;;;;;15.15;9.50;;;2.10;99.90;;;;;;5070816;28;20416;-60
2021/01/31 04:27:42;;;;;;;16.05;8.68;;;2.20;99.90;;;;;;5071562;28;20037;-61
2021/01/31 04:30:09;;;;;;;13.88;8.30;;;2.20;99.90;;;;;;5073849;28;20031;-63
2021/01/31 04:32:38;;;;;;;14.07;8.05;;;2.20;99.90;;;;;;5074120;28;20060;-65
2021/01/31 04:35:06;;;;;;;13.10;7.93;;;2.10;99.90;;;;;;5072693;28;20059;-60
2021/01/31 04:37:32;;;;;;;14.57;8.02;;;2.00;99.90;;;;;;5075062;28;20037;-68
2021/01/31 04:39:58;;;;;;;12.93;7.63;;;2.00;99.90;;;;;;5074334;28;20074;-60
2021/01/31 04:42:23;;;;;;;14.27;8.00;;;2.00;99.90;;;;;;5074937;28;20047;-61
2021/01/31 04:44:50;;;;;;;13.55;8.00;;;2.20;99.90;;;;;;5074299;28;20454;-59
2021/01/31 04:47:29;;;;;;;13.68;8.43;;;2.20;99.90;;;;;;5074988;28;20063;-61
2021/01/31 04:50:22;;;;;;;12.25;7.68;;;2.20;99.90;;;;;;5074467;28;20466;-60
2021/01/31 04:53:06;;;;;;;14.82;8.65;;;2.10;99.90;;;;;;5074306;28;20486;-64
2021/01/31 04:56:21;;;;;;;14.90;8.50;;;2.20;99.90;;;;;;5075882;28;20028;-63
2021/01/31 04:58:49;;;;;;;15.93;8.20;;;2.10;99.90;;;;;;5075968;28;20041;-64
2021/01/31 05:01:23;;;;;;;13.25;8.50;;;1.90;99.90;;;;;;5076738;28;20056;-64
2021/01/31 05:03:59;;;;;;;16.08;8.98;;;2.00;99.90;;;;;;5075140;28;20461;-63
2021/01/31 05:06:28;;;;;;;13.95;8.32;;;2.10;99.90;;;;;;5076738;28;20373;-61
2021/01/31 05:08:54;;;;;;;13.68;7.88;;;2.10;99.90;;;;;;5076448;28;20217;-64
2021/01/31 05:11:28;;;;;;;15.07;9.05;;;2.00;99.90;;;;;;5076351;28;20492;-63
2021/01/31 05:14:20;;;;;;;12.95;8.50;;;2.00;99.90;;;;;;5075688;28;20035;-64
2021/01/31 05:16:49;;;;;;;12.90;7.85;;;2.00;99.90;;;;;;5076648;28;20039;-59
2021/01/31 05:19:16;;;;;;;14.93;8.38;;;2.00;99.90;;;;;;5075473;28;20051;-59
2021/01/31 05:21:42;;;;;;;11.50;7.10;;;2.00;99.90;;;;;;5074068;28;20024;-61
2021/01/31 05:24:15;;;;;;;12.60;8.38;;;2.10;99.90;;;;;;5076418;28;20028;-67
2021/01/31 05:26:44;;;;;;;14.10;7.90;;;2.00;99.90;;;;;;5088368;28;20016;-63
2021/01/31 05:29:17;;;;;;;14.65;8.45;;;2.10;99.90;;;;;;5097078;28;20028;-61
2021/01/31 05:31:56;;;;;;;11.27;7.38;;;2.00;99.90;;;;;;5096002;28;20024;-60
2021/01/31 05:34:36;;;;;;;11.35;8.27;;;2.10;99.90;;;;;;5097006;28;20386;-64
2021/01/31 05:37:05;;;;;;;11.70;7.53;;;1.80;99.90;;;;;;5097004;28;20055;-71
2021/01/31 05:39:48;;;;;;;15.55;7.75;;;1.80;99.90;;;;;;5096721;28;20039;-59
2021/01/31 05:42:18;;;;;;;12.68;8.20;;;1.90;99.90;;;;;;5096522;28;20036;-61
2021/01/31 05:44:44;;;;;;;14.25;7.75;;;1.90;99.90;;;;;;5096304;28;20347;-68
2021/01/31 05:47:22;;;;;;;12.93;7.93;;;2.00;99.90;;;;;;5094043;28;20473;-61
2021/01/31 05:49:50;;;;;;;13.02;8.32;;;2.00;99.90;;;;;;5094741;28;20028;-64
2021/01/31 05:52:18;;;;;;;15.15;8.50;;;1.90;99.90;;;;;;5094405;28;20055;-61
2021/01/31 05:54:45;;;;;;;15.07;8.80;;;2.00;99.90;;;;;;5094470;28;20031;-62
2021/01/31 05:57:31;;;;;;;12.30;8.07;;;2.00;99.90;;;;;;5095209;28;20031;-61
2021/01/31 05:59:59;;;;;;;16.20;9.00;;;2.00;99.90;;;;;;5093144;28;20620;-59
2021/01/31 06:02:30;;;;;;;12.02;7.97;;;2.00;99.90;;;;;;5093234;28;20024;-60
2021/01/31 06:05:18;;;;;;;14.50;8.90;;;2.10;99.90;;;;;;5091891;28;20518;-61
2021/01/31 06:07:46;;;;;;;12.48;8.02;;;2.00;99.90;;;;;;5093044;28;20025;-66
2021/01/31 06:10:18;;;;;;;13.32;7.97;;;2.00;99.90;;;;;;5092676;28;20028;-59
2021/01/31 06:12:47;;;;;;;13.32;7.88;;;2.00;99.90;;;;;;5092491;28;20031;-60
2021/01/31 06:15:25;;;;;;;14.10;8.07;;;2.10;99.90;;;;;;5093603;28;20031;-61
2021/01/31 06:18:10;;;;;;;13.75;7.80;;;2.20;99.90;;;;;;5087760;28;20081;-60
2021/01/31 06:20:39;;;;;;;14.20;8.70;;;2.10;99.90;;;;;;5068605;28;20071;-63
2021/01/31 06:23:06;;;;;;;14.32;8.00;;;1.90;99.90;;;;;;5073264;28;20055;-60
2021/01/31 06:25:39;;;;;;;12.20;7.95;;;1.90;99.90;;;;;;5072964;28;20051;-62
2021/01/31 06:28:17;;;;;;;16.10;9.07;;;1.90;99.90;;;;;;5073147;28;20029;-60
2021/01/31 06:30:50;;;;;;;15.68;9.30;;;2.00;99.90;;;;;;5071010;28;20029;-62
2021/01/31 06:33:16;;;;;;;12.95;8.32;;;2.00;99.90;;;;;;5072861;28;20024;-59
2021/01/31 06:35:43;;;;;;;14.32;9.15;;;2.00;99.90;;;;;;5072351;28;20382;-63
2021/01/31 06:38:47;;;;;;;14.93;9.02;;;2.10;99.90;;;;;;5072554;28;20032;-61
2021/01/31 06:41:47;;;;;;;13.57;8.50;;;2.00;99.90;;;;;;5072610;28;20469;-60
2021/01/31 06:44:21;;;;;;;14.73;8.43;;;1.90;99.90;;;;;;5072935;28;20086;-60
2021/01/31 06:47:07;;;;;;;16.77;8.38;;;2.10;99.90;;;;;;5081684;28;20032;-60
2021/01/31 06:49:52;;;;;;;13.05;8.30;;;2.20;99.90;;;;;;5092156;28;20024;-59
2021/01/31 06:52:42;;;;;;;15.00;8.68;;;2.10;99.90;;;;;;5092882;28;20031;-60
2021/01/31 06:55:25;;;;;;;15.18;9.05;;;2.00;99.90;;;;;;5091564;28;20070;-60
2021/01/31 06:58:20;;;;;;;14.23;8.55;;;1.90;99.90;;;;;;5092438;28;20036;-60
2021/01/31 07:01:08;;;;;;;14.40;9.00;;;2.00;99.90;;;;;;5091681;28;20508;-60
2021/01/31 07:04:05;;;;;;;16.85;9.68;;;1.90;99.90;;;;;;5090908;28;20492;-61
2021/01/31 07:07:05;;;;;;;15.65;8.13;;;1.90;99.90;;;;;;5091645;28;20542;-61
2021/01/31 07:10:00;;;;;;;16.27;7.55;;;1.90;99.90;;;;;;5091045;28;20063;-61
2021/01/31 07:12:28;;;;;;;14.60;7.90;;;2.00;99.90;;;;;;5059962;28;20078;-63
2021/01/31 07:15:04;;;;;;;15.60;8.95;;;2.00;99.90;;;;;;5091995;28;20056;-62
2021/01/31 07:17:39;;;;;;;14.63;7.68;;;1.90;99.90;;;;;;5073580;28;20043;-60
2021/01/31 07:20:22;;;;;;;14.88;8.63;;;1.90;99.90;;;;;;5086151;28;20868;-60
2021/01/31 07:23:02;;;;;;;13.63;8.20;;;1.80;99.90;;;;;;5091535;28;20111;-61
2021/01/31 07:25:49;;;;;;;13.18;8.85;;;1.90;99.90;;;;;;5078813;28;20031;-61
2021/01/31 07:28:25;;;;;;;15.23;8.55;;;1.90;99.90;;;;;;5072022;28;20078;-61
2021/01/31 07:31:08;;;;;;;14.35;8.98;;;1.90;99.90;;;;;;5069863;28;20068;-61
2021/01/31 07:33:50;;;;;;;15.95;8.52;;;1.90;99.90;;;;;;5071684;28;20385;-61
2021/01/31 07:36:23;;;;;;;15.85;9.60;;;2.00;99.90;;;;;;5072307;28;20021;-61
2021/01/31 07:39:03;;;;;;;14.32;9.13;;;2.00;99.90;;;;;;5070713;28;20062;-60
2021/01/31 07:41:31;;;;;;;14.85;8.63;;;2.00;99.90;;;;;;5072252;28;20041;-60
2021/01/31 07:44:03;;;;;;;15.23;8.27;;;2.10;99.90;;;;;;5069655;28;20489;-61
2021/01/31 07:46:30;;;;;;;15.90;8.70;;;2.10;99.90;;;;;;5070634;28;20032;-59
2021/01/31 07:48:59;;;;;;;17.20;9.30;;;2.00;99.90;;;;;;5071555;28;20032;-60
2021/01/31 07:51:27;;;;;;;14.40;8.05;;;2.10;99.90;;;;;;5070763;28;20078;-60
2021/01/31 07:53:57;;;;;;;17.55;8.98;;;2.10;99.90;;;;;;5071090;28;20094;-60
2021/01/31 07:56:23;;;;;;;19.75;8.98;;;2.10;99.90;;;;;;5069906;28;20028;-60
2021/01/31 07:58:49;;;;;;;16.95;8.45;;;2.20;99.90;;;;;;5070715;28;20036;-61
2021/01/31 08:01:35;;;;;;;14.15;8.85;;;2.10;99.90;;;;;;5072555;28;20103;-61
2021/01/31 08:04:33;;;;;;;13.90;7.50;;;2.10;99.90;;;;;;5075204;28;20489;-61
2021/01/31 08:07:01;;;;;;;15.88;8.52;;;2.20;99.90;;;;;;5054042;28;20167;-60
2021/01/31 08:09:27;;;;;;;14.70;8.13;;;2.20;99.90;;;;;;5075727;28;20024;-60
2021/01/31 08:12:01;;;;;;;13.60;8.48;;;2.10;99.90;;;;;;5074614;28;20056;-61
2021/01/31 08:15:03;;;;;;;16.42;8.52;;;2.20;99.90;;;;;;5074482;28;20451;-61
2021/01/31 08:17:38;;;;;;;13.23;8.00;;;2.30;99.90;;;;;;5073963;28;20040;-64
2021/01/31 08:20:22;;;;;;;16.27;8.95;;;2.30;99.90;;;;;;5074233;28;20076;-61
2021/01/31 08:22:48;;;;;;;16.23;8.75;;;2.40;99.90;;;;;;5074524;28;20043;-67
2021/01/31 08:25:14;;;;;;;15.57;7.95;;;2.30;99.90;;;;;;5084358;28;20028;-62
2021/01/31 08:27:42;;;;;;;14.18;7.57;;;2.30;99.90;;;;;;5095438;28;20028;-61
2021/01/31 08:30:14;;;;;;;13.52;8.13;;;2.50;99.90;;;;;;5093524;28;20273;-61
2021/01/31 08:32:58;;;;;;;;;;;2.70;99.90;;;;;;5095645;28;20095;-61
2021/01/31 08:35:26;;;;;;;14.25;7.90;;;2.90;99.90;;;;;;5094008;28;19949;-61
2021/01/31 08:38:14;;;;;;;12.85;7.78;;;3.00;99.90;;;;;;5094123;28;20078;-61
2021/01/31 08:40:41;;;;;;;16.60;8.55;;;3.10;99.90;;;;;;5095052;28;20036;-61
2021/01/31 08:43:11;;;;;;;14.52;8.63;;;3.10;99.90;;;;;;5093178;28;20028;-61
2021/01/31 08:45:42;;;;;;;15.32;9.38;;;3.10;99.90;;;;;;5094959;28;20114;-62
2021/01/31 08:48:07;;;;;;;14.27;8.47;;;3.10;99.90;;;;;;5094133;28;20496;-62
2021/01/31 08:50:33;;;;;;;15.48;8.52;;;3.10;99.90;;;;;;5093495;28;20270;-59
2021/01/31 08:53:00;;;;;;;13.20;8.32;;;3.00;99.90;;;;;;5093629;28;20039;-60
2021/01/31 08:55:26;;;;;;;13.10;8.50;;;3.10;99.90;;;;;;5093903;28;20024;-62
2021/01/31 08:58:00;;;;;;;14.30;8.75;;;3.10;99.90;;;;;;5093546;28;20085;-62
2021/01/31 09:00:28;;;;;;;13.73;8.57;;;3.10;99.90;;;;;;5095070;28;20038;-60
2021/01/31 09:02:54;;;;;;;13.57;8.52;;;3.00;99.90;;;;;;5092337;28;20056;-60
2021/01/31 09:05:20;;;;;;;13.32;8.32;;;3.10;99.90;;;;;;5093295;28;20046;-59
2021/01/31 09:07:58;;;;;;;15.38;9.27;;;3.10;99.90;;;;;;5095278;28;20051;-64
2021/01/31 09:10:30;;;;;;;14.70;7.97;;;3.10;99.90;;;;;;5095034;28;20030;-59
2021/01/31 09:13:28;;;;;;;16.25;9.10;;;3.10;99.90;;;;;;5092461;28;20089;-60
2021/01/31 09:16:08;;;;;;;14.07;8.02;;;3.10;99.90;;;;;;5090732;28;20115;-60
2021/01/31 09:18:34;;;;;;;13.18;8.32;;;3.10;99.90;;;;;;5094195;28;20033;-61
2021/01/31 09:21:18;;;;;;;14.45;7.95;;;3.20;99.90;;;;;;5092392;28;20399;-62
2021/01/31 09:23:44;;;;;;;15.20;8.02;;;3.10;99.90;;;;;;5094513;28;20052;-65
2021/01/31 09:26:11;;;;;;;15.82;9.48;;;3.20;99.90;;;;;;5093265;28;20110;-59
2021/01/31 09:28:40;;;;;;;15.52;8.98;;;3.20;99.90;;;;;;5094522;28;20043;-61
2021/01/31 09:31:06;;;;;;;14.63;7.93;;;3.10;99.90;;;;;;5091769;28;20031;-60
2021/01/31 09:33:40;;;;;;;15.90;9.45;;;3.20;99.90;;;;;;5092607;28;20024;-60
2021/01/31 09:36:21;;;;;;;15.68;9.55;;;3.20;99.90;;;;;;5092236;28;20462;-61
2021/01/31 09:38:49;;;;;;;15.00;8.82;;;3.20;99.90;;;;;;5075946;28;20028;-61
2021/01/31 09:41:18;;;;;;;16.13;8.88;;;3.20;99.90;;;;;;5093241;28;20069;-61
2021/01/31 09:43:46;;;;;;;13.27;8.43;;;3.20;99.90;;;;;;5092760;28;20071;-61
2021/01/31 09:46:15;;;;;;;13.75;8.55;;;3.30;99.90;;;;;;5092925;28;20197;-61
2021/01/31 09:48:42;;;;;;;14.45;8.68;;;3.30;99.90;;;;;;5093832;28;20032;-59
2021/01/31 09:51:21;;;;;;;14.73;8.70;;;3.30;99.90;;;;;;5091934;28;20024;-64
2021/01/31 09:53:47;;;;;;;12.48;8.57;;;3.40;99.90;;;;;;5092517;28;20083;-60
2021/01/31 09:56:32;;;;;;;14.95;9.40;;;3.20;99.90;;;;;;5074226;28;20025;-59
2021/01/31 09:58:58;;;;;;;13.48;8.52;;;3.30;99.90;;;;;;5071725;28;20025;-61
2021/01/31 10:01:28;;;;;;;11.43;8.52;;;3.50;99.90;;;;;;5071738;28;20038;-62
2021/01/31 10:04:01;;;;;;;12.75;8.38;;;3.40;99.90;;;;;;5070329;28;20343;-67
2021/01/31 10:06:29;;;;;;;16.95;9.63;;;3.20;99.90;;;;;;5073885;28;20039;-61
2021/01/31 10:09:00;;;;;;;11.70;7.95;;;3.30;99.90;;;;;;5071317;28;20033;-70
2021/01/31 10:11:47;;;;;;;14.85;9.00;;;3.50;99.90;;;;;;5074319;28;20051;-62
2021/01/31 10:14:46;;;;;;;19.10;10.82;;;3.60;99.90;;;;;;5073053;28;20177;-62
2021/01/31 10:17:17;;;;;;;14.88;8.85;;;3.70;99.90;;;;;;5064170;28;20294;-62
2021/01/31 10:19:44;;;;;;;15.88;8.95;;;3.90;99.90;;;;;;5073031;28;20051;-60
2021/01/31 10:22:27;;;;;;;14.75;8.68;;;3.90;99.90;;;;;;5070927;28;20048;-64
2021/01/31 10:24:53;;;;;;;13.80;9.30;;;4.00;99.90;;;;;;5079264;28;20028;-67
2021/01/31 10:27:33;;;;;;;13.45;9.40;;;4.00;99.90;;;;;;5091532;28;20028;-61
2021/01/31 10:30:17;;;;;;;14.07;8.82;;;4.10;99.90;;;;;;5092578;28;20024;-64
2021/01/31 10:32:46;;;;;;;13.77;9.55;;;3.70;99.90;;;;;;5092472;28;20024;-60
2021/01/31 10:35:39;;;;;;;11.25;7.65;;;3.70;99.90;;;;;;5092315;28;20494;-62
2021/01/31 10:38:31;;;;;;;13.23;8.50;;;4.00;99.90;;;;;;5089246;28;20044;-60
2021/01/31 10:40:59;;;;;;;14.10;8.55;;;4.00;99.90;;;;;;5092092;28;20051;-65
2021/01/31 10:43:25;;;;;;;10.43;7.72;;;4.10;99.90;;;;;;5091703;28;20036;-60
2021/01/31 10:45:52;;;;;;;12.13;7.93;;;4.10;99.90;;;;;;5089537;28;20020;-62
2021/01/31 10:48:18;;;;;;;13.43;8.35;;;4.10;99.90;;;;;;5091460;28;20032;-61
2021/01/31 10:50:45;;;;;;;12.43;8.23;;;4.00;99.90;;;;;;5091886;28;20027;-66
2021/01/31 10:53:11;;;;;;;12.07;7.47;;;4.00;99.90;;;;;;5081301;28;20021;-62
2021/01/31 10:55:37;;;;;;;15.20;8.98;;;4.00;99.90;;;;;;5068698;28;20032;-61
2021/01/31 10:58:03;;;;;;;12.80;8.20;;;3.90;99.90;;;;;;5070251;28;20485;-61
2021/01/31 11:00:29;;;;;;;15.85;9.52;;;4.10;99.90;;;;;;5071733;28;20043;-61
2021/01/31 11:02:54;;;;;;;11.48;7.38;;;4.20;99.90;;;;;;5069487;28;20135;-67
2021/01/31 11:05:22;;;;;;;12.70;7.70;;;4.30;99.90;;;;;;5071832;28;20429;-64
2021/01/31 11:07:48;;;;;;;11.02;7.90;;;4.30;99.90;;;;;;5071988;28;20126;-61
2021/01/31 11:10:16;;;;;;;18.50;11.43;;;3.90;99.90;;;;;;5071322;28;20520;-61
2021/01/31 11:12:41;;;;;;;15.88;10.45;;;3.70;99.90;;;;;;5072538;28;20112;-62
2021/01/31 11:15:09;;;;;;;15.27;9.63;;;3.80;99.90;;;;;;5069598;28;20112;-61
2021/01/31 11:17:35;;;;;;;13.90;8.52;;;4.10;99.90;;;;;;5071826;28;20082;-61
2021/01/31 11:20:00;;;;;;;13.95;8.73;;;3.80;99.90;;;;;;5071259;28;20045;-62
2021/01/31 11:22:26;;;;;;;15.07;9.43;;;3.90;99.90;;;;;;5072134;28;20040;-62
2021/01/31 11:24:52;;;;;;;12.85;8.70;;;4.00;99.90;;;;;;5079950;28;20039;-62
2021/01/31 11:27:18;;;;;;;14.10;8.35;;;4.20;99.90;;;;;;5090356;28;20020;-61
2021/01/31 11:29:44;;;;;;;15.95;8.77;;;4.30;99.90;;;;;;5092703;28;20386;-62
2021/01/31 11:32:10;;;;;;;13.15;7.30;;;4.50;99.90;;;;;;5073778;28;20192;-67
2021/01/31 11:34:36;;;;;;;53.13;15.48;;;4.50;99.90;;;;;;5093028;28;20240;-64
2021/01/31 11:37:02;;;;;;;14.75;9.60;;;6.00;99.90;;;;;;5094810;28;20036;-65
2021/01/31 11:39:28;;;;;;;12.73;8.25;;;5.60;99.90;;;;;;5097092;28;20071;-65
2021/01/31 11:41:54;;;;;;;16.30;10.07;;;5.30;99.90;;;;;;5095437;28;20474;-62
2021/01/31 11:44:20;;;;;;;13.63;8.77;;;5.10;99.90;;;;;;5096068;28;20028;-67
2021/01/31 11:46:46;;;;;;;13.70;9.40;;;5.10;99.90;;;;;;5076544;28;20039;-72
2021/01/31 11:49:11;;;;;;;16.08;8.55;;;5.00;99.90;;;;;;5075452;28;20029;-63
2021/01/31 11:51:37;;;;;;;16.15;9.48;;;5.00;99.90;;;;;;5075727;28;20116;-62
2021/01/31 11:54:03;;;;;;;14.98;8.55;;;5.00;99.90;;;;;;5075116;28;20541;-60
2021/01/31 11:56:28;;;;;;;13.93;9.02;;;4.40;99.90;;;;;;5095956;28;20027;-62
2021/01/31 11:58:54;;;;;;;14.82;8.60;;;4.60;99.90;;;;;;5096097;28;20035;-61
2021/01/31 12:01:20;;;;;;;37.50;10.30;;;4.50;99.90;;;;;;5096320;28;20036;-65
2021/01/31 12:03:46;;;;;;;17.02;8.43;;;4.50;99.90;;;;;;5096438;28;20028;-62
2021/01/31 12:06:13;;;;;;;16.38;9.10;;;4.50;99.90;;;;;;5094745;28;20024;-65
2021/01/31 12:08:39;;;;;;;14.15;8.38;;;4.50;99.90;;;;;;5094711;28;20469;-61
2021/01/31 12:11:06;;;;;;;16.55;9.38;;;4.40;99.90;;;;;;5095659;28;20031;-62
2021/01/31 12:13:31;;;;;;;15.98;8.15;;;4.50;99.90;;;;;;5096443;28;20077;-62
2021/01/31 12:15:57;;;;;;;16.85;9.00;;;4.60;99.90;;;;;;5095472;28;20118;-61
2021/01/31 12:18:23;;;;;;;14.20;8.93;;;4.70;99.90;;;;;;5093951;28;20039;-62
2021/01/31 12:20:49;;;;;;;16.58;9.20;;;4.60;99.90;;;;;;5096302;28;20489;-59
2021/01/31 12:23:14;;;;;;;14.45;8.80;;;4.50;99.90;;;;;;5095399;28;20423;-62
2021/01/31 12:25:40;;;;;;;12.85;8.07;;;4.40;99.90;;;;;;5096130;28;20060;-61
2021/01/31 12:28:07;;;;;;;14.43;8.35;;;4.50;99.90;;;;;;5095077;28;20085;-61
2021/01/31 12:30:33;;;;;;;17.30;8.05;;;4.70;99.90;;;;;;5096048;28;20057;-64
2021/01/31 12:33:00;;;;;;;14.57;8.63;;;4.70;99.90;;;;;;5094689;28;20032;-61
2021/01/31 12:35:27;;;;;;;20.85;10.35;;;4.80;99.90;;;;;;5095472;28;20028;-62
2021/01/31 12:37:53;;;;;;;16.33;10.07;;;4.80;99.90;;;;;;5095819;28;20042;-61
2021/01/31 12:40:21;;;;;;;18.13;11.18;;;4.80;99.90;;;;;;5095053;28;20028;-62
2021/01/31 12:42:47;;;;;;;12.80;8.13;;;4.50;99.90;;;;;;5094098;28;20119;-61
2021/01/31 12:45:15;;;;;;;14.60;8.80;;;4.00;99.90;;;;;;5095341;28;20063;-61
2021/01/31 12:47:41;;;;;;;16.42;8.70;;;3.80;99.90;;;;;;5094083;28;20119;-61
2021/01/31 12:50:08;;;;;;;14.00;9.38;;;3.90;99.90;;;;;;5093657;28;20051;-61
2021/01/31 12:52:37;;;;;;;13.95;9.25;;;4.00;99.90;;;;;;5095730;28;20031;-61
2021/01/31 12:55:05;;;;;;;13.40;8.18;;;4.10;99.90;;;;;;5093420;28;20381;-62
2021/01/31 12:57:31;;;;;;;14.50;8.45;;;4.00;99.90;;;;;;5095241;28;20532;-62
2021/01/31 12:59:59;;;;;;;13.13;8.50;;;4.20;99.90;;;;;;5093789;28;20120;-62
2021/01/31 13:02:28;;;;;;;14.98;8.60;;;4.10;99.90;;;;;;5093232;28;20028;-62
2021/01/31 13:04:53;;;;;;;14.10;9.25;;;4.10;99.90;;;;;;5095615;28;20072;-62
2021/01/31 13:07:20;;;;;;;15.13;9.38;;;4.00;99.90;;;;;;5092407;28;20412;-65
2021/01/31 13:09:46;;;;;;;21.63;9.50;;;4.00;99.90;;;;;;5093671;28;20119;-61
2021/01/31 13:12:11;;;;;;;12.43;8.38;;;4.20;99.90;;;;;;5094105;28;20064;-61